aviador You're here:

K4MR Decoded Metar

Melrose Gunnery Range in NM, United States
Report Time2018-05-26 07:58:00
UTC Time2018-05-26 08:07:45
Flight Rules vfr VFR
Wind320° at 06 kt
W.Rank320° ranks 34
Current wind is below 320° avg. (7.7)
Visibility9999 m
Phenomena:N/A
Clouds:N/A
Expected CloudBase > 5,600 ft AGL from Temp-Dew spread
CeilingNone
Temp18°C
Dew Point04°C (40% RH)
AAT14.6°C
QNH1015 hPa
Raw Report
METAR K4MR 260758Z AUTO 32006KT 10SM CLR 18/04 A2997 RMK AO2 SLP084
T01780036 $=

Extra information for K4MR:More info

Metar Taf Metar & Taf Last 4 Metars F.Rules Stats Wind Profile Meteogram Temp Stats Airport Information Weather charts Add Link Nearby VenuesMetar ALERT Operation Metar Decoded Social comments